createdAt,value
2023-05-08T00:00:42.405Z,33.07
2023-05-08T00:01:42.419Z,33.08
2023-05-08T00:02:42.486Z,33.10
2023-05-08T00:03:42.560Z,33.08
2023-05-08T00:04:42.570Z,33.04
2023-05-08T00:05:42.530Z,33.06
2023-05-08T00:06:42.558Z,33.07
2023-05-08T00:07:42.575Z,33.14
2023-05-08T00:08:42.581Z,33.13
2023-05-08T00:09:42.663Z,33.11
2023-05-08T00:10:42.608Z,33.11
2023-05-08T00:11:42.656Z,33.12
2023-05-08T00:12:42.736Z,33.13
2023-05-08T00:13:42.688Z,33.13
2023-05-08T00:14:42.741Z,33.12
2023-05-08T00:15:42.759Z,33.12
2023-05-08T00:16:42.875Z,33.11
2023-05-08T00:17:42.867Z,33.14
2023-05-08T00:18:42.862Z,33.17
2023-05-08T00:19:42.863Z,33.18
2023-05-08T00:20:42.900Z,33.22
2023-05-08T00:21:42.936Z,33.17
2023-05-08T00:22:42.934Z,33.16
2023-05-08T00:23:42.985Z,33.21
2023-05-08T00:24:43.016Z,33.15
2023-05-08T00:25:43.055Z,33.18
2023-05-08T00:26:43.054Z,33.15
2023-05-08T00:27:43.107Z,33.15
2023-05-08T00:28:43.185Z,33.17
2023-05-08T00:29:43.231Z,33.17
2023-05-08T00:30:43.258Z,33.18
2023-05-08T00:31:43.318Z,33.17
2023-05-08T00:32:43.407Z,33.19
2023-05-08T00:33:43.423Z,33.24
2023-05-08T00:34:43.476Z,33.22
2023-05-08T00:35:43.496Z,33.23
2023-05-08T00:36:43.596Z,33.22
2023-05-08T00:37:43.534Z,33.21
2023-05-08T00:38:43.649Z,33.24
2023-05-08T00:39:43.651Z,33.23
2023-05-08T00:40:43.619Z,33.29
2023-05-08T00:41:43.653Z,33.26
2023-05-08T00:42:43.710Z,33.28
2023-05-08T00:43:43.728Z,33.35
2023-05-08T00:44:43.756Z,33.33
2023-05-08T00:45:43.837Z,33.27
2023-05-08T00:46:43.932Z,33.28
2023-05-08T00:47:43.990Z,33.29
2023-05-08T00:48:43.941Z,33.27
2023-05-08T00:49:44.061Z,33.32
2023-05-08T00:50:44.048Z,33.36
2023-05-08T00:51:44.106Z,33.34
2023-05-08T00:52:44.138Z,33.31
2023-05-08T00:53:44.218Z,33.33
2023-05-08T00:54:44.219Z,33.34
2023-05-08T00:55:44.241Z,33.37
2023-05-08T00:56:44.279Z,33.39
2023-05-08T00:57:44.341Z,33.38
2023-05-08T00:58:44.398Z,33.35
2023-05-08T00:59:44.397Z,33.37
2023-05-08T01:00:44.444Z,33.35
2023-05-08T01:01:44.494Z,33.34
2023-05-08T01:02:44.588Z,33.35
2023-05-08T01:03:44.699Z,33.39
2023-05-08T01:04:44.581Z,33.37
2023-05-08T01:05:44.629Z,33.36
2023-05-08T01:06:44.622Z,33.37
2023-05-08T01:07:44.641Z,33.36
2023-05-08T01:08:44.687Z,33.40
2023-05-08T01:09:44.725Z,33.41
2023-05-08T01:10:44.733Z,33.41
2023-05-08T01:11:44.783Z,33.43
2023-05-08T01:12:44.812Z,33.41
2023-05-08T01:13:44.825Z,33.41
2023-05-08T01:14:44.836Z,33.39
2023-05-08T01:15:44.935Z,33.41
2023-05-08T01:16:44.933Z,33.43
2023-05-08T01:17:45.011Z,33.41
2023-05-08T01:18:44.983Z,33.43
2023-05-08T01:19:45.014Z,33.42
2023-05-08T01:20:45.052Z,33.43
2023-05-08T01:21:45.073Z,33.45
2023-05-08T01:22:45.116Z,33.44
2023-05-08T01:23:45.221Z,33.47
2023-05-08T01:24:45.174Z,33.43
2023-05-08T01:25:45.164Z,33.43
2023-05-08T01:26:45.191Z,33.43
2023-05-08T01:27:45.206Z,33.42
2023-05-08T01:28:45.255Z,33.47
2023-05-08T01:29:45.278Z,33.48
2023-05-08T01:30:45.342Z,33.49
2023-05-08T01:31:45.384Z,33.51
2023-05-08T01:32:45.438Z,33.47
2023-05-08T01:33:45.465Z,33.48
2023-05-08T01:34:45.474Z,33.49
2023-05-08T01:35:45.507Z,33.47
2023-05-08T01:36:45.530Z,33.50
2023-05-08T01:37:45.558Z,33.52
2023-05-08T01:38:45.580Z,33.50
2023-05-08T01:39:45.559Z,33.51
2023-05-08T01:40:45.578Z,33.55
2023-05-08T01:41:45.682Z,33.52
2023-05-08T01:42:45.655Z,33.52
2023-05-08T01:43:45.666Z,33.54
2023-05-08T01:44:45.699Z,33.54
2023-05-08T01:45:45.731Z,33.53
2023-05-08T01:46:45.775Z,33.58
2023-05-08T01:47:45.809Z,33.54
2023-05-08T01:48:45.808Z,33.53
2023-05-08T01:49:45.872Z,33.56
2023-05-08T01:50:45.903Z,33.56
2023-05-08T01:51:45.925Z,33.54
2023-05-08T01:52:45.943Z,33.57
2023-05-08T01:53:45.992Z,33.59
2023-05-08T01:54:45.989Z,33.57
2023-05-08T01:55:46.018Z,33.58
2023-05-08T01:56:46.070Z,33.58
2023-05-08T01:57:46.153Z,33.61
2023-05-08T01:58:46.139Z,33.60
2023-05-08T01:59:46.141Z,33.58
2023-05-08T02:00:46.219Z,33.61
2023-05-08T02:01:46.253Z,33.60
2023-05-08T02:02:46.455Z,33.62
2023-05-08T02:03:46.344Z,33.59
2023-05-08T02:04:46.301Z,33.61
2023-05-08T02:05:46.313Z,33.61
2023-05-08T02:06:46.328Z,33.58
2023-05-08T02:07:46.354Z,33.60
2023-05-08T02:08:46.371Z,33.63
2023-05-08T02:09:46.398Z,33.63
2023-05-08T02:10:46.392Z,33.62
2023-05-08T02:11:46.436Z,33.65
2023-05-08T02:12:46.477Z,33.64
2023-05-08T02:13:46.523Z,33.67
2023-05-08T02:14:46.551Z,33.69
2023-05-08T02:15:46.564Z,33.68
2023-05-08T02:16:46.632Z,33.67
2023-05-08T02:17:46.676Z,33.65
2023-05-08T02:18:46.702Z,33.67
2023-05-08T02:19:46.724Z,33.66
2023-05-08T02:20:46.746Z,33.68
2023-05-08T02:21:46.767Z,33.70
2023-05-08T02:22:46.823Z,33.68
2023-05-08T02:23:46.861Z,33.70
2023-05-08T02:24:46.875Z,33.68
2023-05-08T02:25:46.938Z,33.68
2023-05-08T02:26:46.974Z,33.68
2023-05-08T02:27:46.968Z,33.69
2023-05-08T02:28:47.033Z,33.67
2023-05-08T02:29:47.078Z,33.68
2023-05-08T02:30:47.103Z,33.69
2023-05-08T02:31:47.178Z,33.74
2023-05-08T02:32:47.210Z,33.70
2023-05-08T02:33:47.221Z,33.72
2023-05-08T02:34:58.838Z,33.71
2023-05-08T02:35:48.249Z,33.74
2023-05-08T02:36:47.230Z,33.73
2023-05-08T02:37:47.228Z,33.73
2023-05-08T02:38:47.227Z,33.72
2023-05-08T02:39:47.221Z,33.73
2023-05-08T02:40:47.204Z,33.71
2023-05-08T02:41:47.198Z,33.72
2023-05-08T02:42:47.213Z,33.73
2023-05-08T02:43:47.173Z,33.75
2023-05-08T02:44:47.148Z,33.75
2023-05-08T02:45:47.178Z,33.71
2023-05-08T02:46:47.155Z,33.75
2023-05-08T02:47:47.138Z,33.76
2023-05-08T02:48:47.133Z,33.77
2023-05-08T02:49:47.110Z,33.75
2023-05-08T02:50:47.100Z,33.78
2023-05-08T02:51:47.145Z,33.77
2023-05-08T02:52:47.156Z,33.75
2023-05-08T02:53:47.198Z,33.77
2023-05-08T02:54:47.274Z,33.79
2023-05-08T02:55:47.269Z,33.79
2023-05-08T02:56:47.282Z,33.77
2023-05-08T02:57:47.420Z,33.77
2023-05-08T02:58:47.338Z,33.78
2023-05-08T02:59:47.390Z,33.80
2023-05-08T03:00:47.447Z,33.79
2023-05-08T03:01:47.470Z,33.79
2023-05-08T03:02:47.591Z,33.79
2023-05-08T03:03:47.754Z,33.80
2023-05-08T03:04:47.573Z,33.79
2023-05-08T03:05:47.575Z,33.81
2023-05-08T03:06:47.595Z,33.82
2023-05-08T03:07:47.643Z,33.81
2023-05-08T03:08:47.661Z,33.81
2023-05-08T03:09:47.694Z,33.81
2023-05-08T03:10:47.721Z,33.82
2023-05-08T03:11:47.754Z,33.83
2023-05-08T03:12:47.792Z,33.82
2023-05-08T03:13:47.790Z,33.84
2023-05-08T03:14:47.821Z,33.89
2023-05-08T03:15:47.956Z,33.84
2023-05-08T03:16:47.916Z,33.84
2023-05-08T03:17:47.982Z,33.85
2023-05-08T03:18:47.974Z,33.86
2023-05-08T03:19:47.955Z,33.87
2023-05-08T03:20:48.002Z,33.86
2023-05-08T03:21:48.035Z,33.86
2023-05-08T03:22:48.048Z,33.86
2023-05-08T03:23:48.087Z,33.87
2023-05-08T03:24:48.138Z,33.88
2023-05-08T03:25:48.176Z,33.85
2023-05-08T03:26:48.204Z,33.92
2023-05-08T03:27:48.259Z,33.90
2023-05-08T03:28:48.289Z,33.88
2023-05-08T03:29:48.295Z,33.90
2023-05-08T03:30:48.289Z,33.91
2023-05-08T03:31:48.387Z,33.90
2023-05-08T03:32:48.361Z,33.89
2023-05-08T03:33:48.363Z,33.91
2023-05-08T03:34:48.314Z,33.89
2023-05-08T03:35:48.355Z,33.91
2023-05-08T03:36:48.345Z,33.93
2023-05-08T03:37:48.388Z,33.91
2023-05-08T03:38:48.411Z,33.91
2023-05-08T03:39:48.441Z,33.91
2023-05-08T03:40:48.460Z,33.94
2023-05-08T03:41:48.514Z,33.94
2023-05-08T03:42:48.561Z,33.94
2023-05-08T03:43:48.590Z,33.94
2023-05-08T03:44:48.618Z,33.90
2023-05-08T03:45:48.664Z,33.95
2023-05-08T03:46:48.780Z,33.95
2023-05-08T03:47:48.722Z,33.95
2023-05-08T03:48:48.750Z,33.96
2023-05-08T03:49:48.763Z,33.95
2023-05-08T03:50:48.818Z,33.96
2023-05-08T03:51:48.870Z,33.95
2023-05-08T03:52:48.898Z,34.00
2023-05-08T03:53:48.919Z,33.97
2023-05-08T03:54:48.959Z,33.99
2023-05-08T03:55:48.982Z,33.97
2023-05-08T03:56:49.052Z,33.99
2023-05-08T03:57:49.072Z,34.00
2023-05-08T03:58:49.123Z,34.04
2023-05-08T03:59:49.145Z,34.05
2023-05-08T04:00:49.172Z,34.02
2023-05-08T04:01:49.214Z,34.03
2023-05-08T04:02:49.300Z,34.04
2023-05-08T04:03:49.417Z,34.02
2023-05-08T04:04:49.344Z,34.01
2023-05-08T04:05:49.352Z,33.99
2023-05-08T04:06:50.796Z,34.04
2023-05-08T04:07:49.409Z,34.03
2023-05-08T04:08:49.451Z,34.05
2023-05-08T04:09:49.522Z,34.05
2023-05-08T04:10:49.523Z,34.05
2023-05-08T04:11:49.590Z,34.04
2023-05-08T04:12:49.666Z,34.06
2023-05-08T04:13:49.649Z,34.07
2023-05-08T04:14:49.750Z,34.07
2023-05-08T04:15:49.738Z,34.07
2023-05-08T04:16:49.767Z,34.05
2023-05-08T04:17:49.870Z,34.08
2023-05-08T04:18:49.869Z,34.06
2023-05-08T04:19:49.893Z,34.09
2023-05-08T04:20:49.952Z,34.09
2023-05-08T04:21:50.046Z,34.12
2023-05-08T04:22:49.989Z,34.06
2023-05-08T04:23:50.044Z,34.12
2023-05-08T04:24:50.004Z,34.08
2023-05-08T04:25:49.999Z,34.07
2023-05-08T04:26:49.990Z,34.10
2023-05-08T04:27:50.044Z,34.12
2023-05-08T04:28:50.019Z,34.10
2023-05-08T04:29:50.015Z,34.12
2023-05-08T04:30:50.028Z,34.09
2023-05-08T04:31:50.114Z,34.13
2023-05-08T04:32:50.094Z,34.15
2023-05-08T04:33:50.056Z,34.12
2023-05-08T04:34:50.079Z,34.17
2023-05-08T04:35:50.104Z,34.15
2023-05-08T04:36:50.118Z,34.14
2023-05-08T04:37:50.148Z,34.18
2023-05-08T04:38:50.140Z,34.20
2023-05-08T04:39:50.154Z,34.14
2023-05-08T04:40:50.199Z,34.21
2023-05-08T04:41:50.240Z,34.17
2023-05-08T04:42:50.239Z,34.16
2023-05-08T04:43:50.248Z,34.17
2023-05-08T04:44:50.252Z,34.19
2023-05-08T04:45:50.300Z,34.20
2023-05-08T04:46:50.385Z,34.18
2023-05-08T04:47:50.315Z,34.17
2023-05-08T04:48:50.290Z,34.22
2023-05-08T04:49:50.317Z,34.24
2023-05-08T04:50:50.281Z,34.23
2023-05-08T04:51:50.317Z,34.24
2023-05-08T04:52:50.350Z,34.24
2023-05-08T04:53:50.357Z,34.25
2023-05-08T04:54:50.379Z,34.23
2023-05-08T04:55:50.417Z,34.26
2023-05-08T04:56:50.441Z,34.29
2023-05-08T04:57:50.490Z,34.27
2023-05-08T04:58:50.532Z,34.28
2023-05-08T04:59:50.570Z,34.27
2023-05-08T05:02:09.765Z,34.38
2023-05-08T05:03:09.657Z,34.38
2023-05-08T05:04:09.456Z,34.38
2023-05-08T05:05:09.468Z,34.34
2023-05-08T05:06:09.313Z,34.34
2023-05-08T05:07:09.311Z,34.36
2023-05-08T05:08:09.316Z,34.36
2023-05-08T05:09:09.283Z,34.33
2023-05-08T05:10:09.323Z,34.40
2023-05-08T05:11:09.255Z,34.35
2023-05-08T05:12:09.306Z,34.36
2023-05-08T05:13:09.331Z,34.38
2023-05-08T05:14:09.284Z,34.41
2023-05-08T05:15:09.254Z,34.39
2023-05-08T05:16:09.291Z,34.39
2023-05-08T05:17:09.255Z,34.39
2023-05-08T05:18:09.297Z,34.42
2023-05-08T05:19:09.200Z,34.41
2023-05-08T05:20:09.233Z,34.43
2023-05-08T05:21:09.243Z,34.41
2023-05-08T05:22:09.215Z,34.42
2023-05-08T05:23:09.257Z,34.43
2023-05-08T05:24:09.175Z,34.42
2023-05-08T05:25:09.181Z,34.44
2023-05-08T05:26:09.240Z,34.47
2023-05-08T05:27:09.216Z,34.46
2023-05-08T05:28:09.178Z,34.49
2023-05-08T05:29:09.194Z,34.44
2023-05-08T05:30:09.215Z,34.50
2023-05-08T05:31:09.241Z,34.50
2023-05-08T05:32:09.197Z,34.54
2023-05-08T05:33:09.488Z,34.72
2023-05-08T05:34:15.631Z,36.25
2023-05-08T05:35:14.676Z,37.80
2023-05-08T05:36:16.072Z,37.78
2023-05-08T05:37:09.090Z,37.95
2023-05-08T05:38:09.095Z,38.37
2023-05-08T05:39:10.567Z,38.56
2023-05-08T05:40:09.094Z,38.75
2023-05-08T05:41:09.039Z,39.03
2023-05-08T05:42:09.055Z,39.11
2023-05-08T05:43:09.031Z,39.39
2023-05-08T05:44:10.031Z,39.29
2023-05-08T05:45:09.015Z,39.42
2023-05-08T05:46:16.014Z,39.57
2023-05-08T05:47:09.116Z,39.55
2023-05-08T05:48:09.078Z,39.81
2023-05-08T05:49:09.056Z,40.43
2023-05-08T05:50:09.028Z,40.48
2023-05-08T05:51:09.010Z,40.64
2023-05-08T05:52:08.968Z,40.87
2023-05-08T05:53:08.989Z,40.82
2023-05-08T05:54:08.943Z,40.89
2023-05-08T05:55:08.940Z,40.86
2023-05-08T05:56:08.920Z,40.75
2023-05-08T05:57:09.020Z,40.84
2023-05-08T05:58:09.037Z,40.56
2023-05-08T05:59:08.951Z,40.56
2023-05-08T06:00:08.998Z,40.55
2023-05-08T06:01:09.018Z,40.87
2023-05-08T06:02:09.034Z,41.01
2023-05-08T06:03:09.709Z,41.16
2023-05-08T06:04:08.947Z,41.41
2023-05-08T06:05:08.901Z,41.69
2023-05-08T06:06:08.912Z,41.28
2023-05-08T06:07:08.880Z,41.49
2023-05-08T06:08:08.867Z,41.68
2023-05-08T06:09:09.540Z,41.81
2023-05-08T06:10:09.044Z,41.98
2023-05-08T06:11:08.837Z,41.86
2023-05-08T06:12:08.857Z,41.69
2023-05-08T06:13:08.966Z,42.14
2023-05-08T06:14:09.094Z,41.80
2023-05-08T06:15:08.878Z,41.79
2023-05-08T06:16:08.824Z,41.98
2023-05-08T06:17:08.928Z,41.76
2023-05-08T06:18:08.838Z,41.73
2023-05-08T06:19:08.807Z,41.92
2023-05-08T06:20:08.807Z,42.01
2023-05-08T06:21:08.794Z,40.24
2023-05-08T06:22:08.771Z,39.20
2023-05-08T06:23:08.789Z,38.77
2023-05-08T06:24:08.786Z,38.95
2023-05-08T06:25:08.765Z,38.83
2023-05-08T06:26:08.732Z,38.85
2023-05-08T06:27:08.744Z,38.76
2023-05-08T06:28:08.713Z,38.84
2023-05-08T06:29:09.112Z,38.89
2023-05-08T06:30:08.766Z,38.99
2023-05-08T06:31:08.875Z,38.89
2023-05-08T06:32:08.806Z,38.97
2023-05-08T06:33:08.872Z,39.07
2023-05-08T06:34:09.128Z,39.05
2023-05-08T06:35:08.989Z,39.29
2023-05-08T06:36:09.080Z,39.12
2023-05-08T06:37:09.104Z,39.33
2023-05-08T06:38:09.136Z,39.44
2023-05-08T06:39:09.214Z,39.90
2023-05-08T06:40:12.216Z,39.76
2023-05-08T06:41:09.262Z,40.08
2023-05-08T06:42:09.273Z,40.07
2023-05-08T06:43:09.241Z,40.25
2023-05-08T06:44:09.598Z,40.39
2023-05-08T06:45:09.437Z,40.26
2023-05-08T06:46:09.364Z,40.29
2023-05-08T06:47:09.262Z,40.18
2023-05-08T06:48:09.329Z,40.21
2023-05-08T06:49:09.619Z,39.89
2023-05-08T06:50:09.312Z,39.97
2023-05-08T06:51:09.349Z,39.50
2023-05-08T06:52:10.150Z,39.79
2023-05-08T06:53:09.234Z,39.66
2023-05-08T06:54:09.222Z,39.58
2023-05-08T06:55:09.279Z,39.75
2023-05-08T06:56:09.176Z,39.41
2023-05-08T06:57:09.237Z,39.66
2023-05-08T06:58:09.150Z,39.52
2023-05-08T06:59:09.444Z,39.31
2023-05-08T07:00:09.154Z,39.55
2023-05-08T07:01:10.135Z,39.73
2023-05-08T07:02:09.326Z,39.64
2023-05-08T07:03:09.142Z,39.67
2023-05-08T07:04:09.144Z,39.74
2023-05-08T07:05:09.130Z,39.68
2023-05-08T07:06:09.138Z,39.47
2023-05-08T07:07:09.137Z,39.36
2023-05-08T07:08:09.380Z,39.32
2023-05-08T07:09:09.303Z,39.43
2023-05-08T07:10:09.240Z,39.43
2023-05-08T07:11:09.306Z,39.58
2023-05-08T07:12:09.283Z,39.43
2023-05-08T07:13:09.548Z,39.32
2023-05-08T07:14:09.453Z,39.47
2023-05-08T07:15:21.834Z,39.14
2023-05-08T07:16:10.409Z,39.27
2023-05-08T07:17:09.392Z,39.39
2023-05-08T07:18:09.378Z,39.62
2023-05-08T07:19:09.352Z,39.61
2023-05-08T07:20:09.407Z,39.51
2023-05-08T07:21:09.444Z,39.48
2023-05-08T07:22:09.312Z,39.66
2023-05-08T07:23:09.347Z,39.50
2023-05-08T07:24:09.341Z,39.83
2023-05-08T07:25:09.512Z,39.82
2023-05-08T07:26:09.459Z,39.77
2023-05-08T07:27:09.560Z,39.96
2023-05-08T07:28:09.621Z,39.96
2023-05-08T07:29:09.633Z,40.10
2023-05-08T07:30:10.142Z,40.27
2023-05-08T07:31:09.872Z,40.33
2023-05-08T07:32:09.873Z,40.20
2023-05-08T07:33:10.027Z,40.00
2023-05-08T07:34:10.000Z,40.16
2023-05-08T07:35:10.853Z,40.22
2023-05-08T07:36:10.071Z,40.40
2023-05-08T07:37:10.139Z,40.51
2023-05-08T07:38:10.232Z,40.21
2023-05-08T07:39:10.291Z,40.24
2023-05-08T07:40:10.355Z,40.25
2023-05-08T07:41:10.437Z,40.33
2023-05-08T07:42:10.418Z,40.63
2023-05-08T07:43:10.476Z,40.44
2023-05-08T07:44:10.632Z,40.55
2023-05-08T07:45:10.769Z,40.49
2023-05-08T07:46:10.662Z,40.38
2023-05-08T07:47:10.752Z,40.39
2023-05-08T07:48:10.929Z,40.61
2023-05-08T07:49:10.853Z,40.67
2023-05-08T07:50:10.912Z,40.82
2023-05-08T07:51:10.971Z,40.85
2023-05-08T07:52:11.004Z,40.93
2023-05-08T07:53:11.068Z,40.95
2023-05-08T07:54:11.150Z,40.99
2023-05-08T07:55:11.816Z,40.98
2023-05-08T07:56:11.167Z,40.98
2023-05-08T07:57:11.220Z,41.08
2023-05-08T07:58:11.208Z,41.03
2023-05-08T07:59:11.239Z,40.97
2023-05-08T08:00:11.666Z,40.54
2023-05-08T08:01:11.261Z,40.75
2023-05-08T08:02:11.364Z,40.83
2023-05-08T08:03:11.405Z,40.47
2023-05-08T08:04:13.969Z,40.92
2023-05-08T08:05:11.916Z,40.27
2023-05-08T08:06:11.335Z,39.28
2023-05-08T08:07:11.341Z,39.05
2023-05-08T08:08:11.329Z,39.05
2023-05-08T08:09:11.309Z,38.98
2023-05-08T08:10:11.300Z,39.10
2023-05-08T08:11:11.263Z,39.18
2023-05-08T08:12:11.309Z,39.19
2023-05-08T08:13:11.334Z,39.35
2023-05-08T08:14:11.292Z,39.52
2023-05-08T08:15:11.484Z,39.61
2023-05-08T08:16:11.267Z,39.71
2023-05-08T08:17:11.492Z,39.71
2023-05-08T08:18:11.303Z,39.69
2023-05-08T08:19:11.249Z,39.74
2023-05-08T08:20:11.226Z,39.72
2023-05-08T08:21:11.295Z,39.60
2023-05-08T08:22:11.239Z,39.56
2023-05-08T08:23:11.245Z,39.46
2023-05-08T08:24:11.215Z,39.47
2023-05-08T08:25:11.455Z,39.53
2023-05-08T08:26:11.205Z,39.37
2023-05-08T08:27:11.217Z,39.44
2023-05-08T08:28:11.172Z,39.40
2023-05-08T08:29:12.073Z,39.38
2023-05-08T08:30:17.602Z,39.41
2023-05-08T08:31:12.674Z,39.53
2023-05-08T08:32:11.198Z,39.59
2023-05-08T08:33:11.181Z,39.79
2023-05-08T08:34:11.160Z,39.76
2023-05-08T08:35:11.249Z,39.84
2023-05-08T08:36:11.124Z,39.87
2023-05-08T08:37:13.745Z,40.22
2023-05-08T08:38:11.351Z,40.06
2023-05-08T08:39:13.391Z,40.44
2023-05-08T08:40:11.366Z,40.76
2023-05-08T08:41:11.370Z,40.77
2023-05-08T08:42:11.399Z,40.83
2023-05-08T08:43:11.380Z,40.50
2023-05-08T08:44:11.317Z,39.78
2023-05-08T08:45:11.536Z,39.82
2023-05-08T08:46:11.362Z,39.65
2023-05-08T08:47:11.326Z,39.69
2023-05-08T08:48:11.349Z,39.81
2023-05-08T08:49:11.291Z,39.74
2023-05-08T08:50:14.266Z,39.65
2023-05-08T08:51:11.279Z,39.76
2023-05-08T08:52:11.291Z,39.75
2023-05-08T08:53:11.391Z,40.08
2023-05-08T08:54:11.262Z,40.02
2023-05-08T08:55:11.567Z,40.05
2023-05-08T08:56:11.703Z,40.18
2023-05-08T08:57:11.261Z,40.40
2023-05-08T08:58:11.306Z,40.31
2023-05-08T08:59:11.356Z,40.13
2023-05-08T09:00:11.335Z,40.00
2023-05-08T09:01:11.309Z,40.01
2023-05-08T09:02:12.215Z,40.23
2023-05-08T09:03:11.340Z,40.08
2023-05-08T09:04:11.314Z,40.28
2023-05-08T09:05:11.494Z,40.46
2023-05-08T09:06:11.635Z,40.23
2023-05-08T09:07:11.185Z,40.55
2023-05-08T09:08:11.220Z,40.13
2023-05-08T09:09:11.380Z,40.53
2023-05-08T09:10:11.160Z,40.31
2023-05-08T09:11:11.185Z,40.45
2023-05-08T09:12:11.195Z,40.55
2023-05-08T09:13:11.154Z,40.46
2023-05-08T09:14:11.138Z,40.69
2023-05-08T09:15:11.167Z,40.67
2023-05-08T09:16:11.167Z,40.71
2023-05-08T09:17:11.098Z,40.76
2023-05-08T09:18:11.188Z,40.87
2023-05-08T09:19:11.120Z,40.90
2023-05-08T09:20:11.527Z,41.01
2023-05-08T09:21:11.141Z,40.94
2023-05-08T09:22:11.074Z,40.93
2023-05-08T09:23:11.231Z,40.96
2023-05-08T09:24:11.130Z,41.08
2023-05-08T09:25:11.264Z,41.12
2023-05-08T09:26:11.167Z,41.16
2023-05-08T09:27:11.046Z,41.21
2023-05-08T09:28:11.030Z,41.22
2023-05-08T09:29:11.052Z,41.24
2023-05-08T09:30:11.041Z,41.24
2023-05-08T09:31:11.202Z,41.20
2023-05-08T09:32:11.191Z,41.15
2023-05-08T09:33:11.059Z,41.11
2023-05-08T09:34:11.015Z,41.08
2023-05-08T09:35:11.329Z,41.15
2023-05-08T09:36:11.038Z,41.14
2023-05-08T09:37:10.999Z,41.00
2023-05-08T09:38:11.009Z,41.08
2023-05-08T09:39:10.991Z,40.30
2023-05-08T09:40:10.990Z,39.18
2023-05-08T09:41:11.335Z,39.52
2023-05-08T09:42:11.138Z,39.75
2023-05-08T09:43:10.998Z,39.81
2023-05-08T09:44:11.023Z,40.18
2023-05-08T09:45:11.217Z,40.03
2023-05-08T09:46:11.074Z,40.23
2023-05-08T09:47:11.070Z,39.80
2023-05-08T09:48:11.172Z,39.80
2023-05-08T09:49:11.160Z,39.84
2023-05-08T09:50:11.231Z,39.81
2023-05-08T09:51:11.677Z,39.68
2023-05-08T09:52:11.270Z,39.54
2023-05-08T09:53:11.258Z,39.52
2023-05-08T09:54:11.298Z,39.54
2023-05-08T09:55:11.314Z,39.58
2023-05-08T09:56:11.421Z,40.29
2023-05-08T09:57:11.425Z,40.31
2023-05-08T09:58:11.356Z,40.34
2023-05-08T09:59:11.363Z,40.10
2023-05-08T10:00:11.655Z,40.14
2023-05-08T10:01:11.424Z,40.13
2023-05-08T10:02:11.417Z,39.99
2023-05-08T10:03:11.413Z,39.67
2023-05-08T10:04:11.392Z,39.68
2023-05-08T10:05:11.376Z,39.65
2023-05-08T10:06:11.381Z,39.67
2023-05-08T10:07:11.396Z,39.65
2023-05-08T10:08:11.347Z,39.76
2023-05-08T10:09:11.384Z,39.86
2023-05-08T10:10:11.489Z,39.52
2023-05-08T10:11:11.378Z,39.49
2023-05-08T10:12:11.420Z,39.44
2023-05-08T10:13:11.650Z,39.30
2023-05-08T10:14:11.408Z,39.10
2023-05-08T10:15:11.426Z,39.00
2023-05-08T10:16:11.448Z,38.97
2023-05-08T10:17:11.556Z,38.99
2023-05-08T10:18:11.505Z,39.17
2023-05-08T10:19:11.494Z,39.19
2023-05-08T10:20:11.740Z,39.27
2023-05-08T10:21:11.613Z,39.27
2023-05-08T10:22:12.173Z,39.27
2023-05-08T10:23:11.755Z,39.18
2023-05-08T10:24:11.813Z,39.18
2023-05-08T10:25:12.053Z,39.21
2023-05-08T10:26:11.931Z,39.30
2023-05-08T10:27:12.216Z,39.33
2023-05-08T10:28:11.937Z,39.33
2023-05-08T10:29:12.041Z,39.39
2023-05-08T10:30:12.194Z,39.42
2023-05-08T10:31:12.002Z,39.52
2023-05-08T10:32:12.207Z,39.55
2023-05-08T10:33:12.156Z,39.55
2023-05-08T10:34:12.195Z,39.41
2023-05-08T10:35:12.291Z,39.35
2023-05-08T10:36:12.384Z,39.23
2023-05-08T10:37:12.678Z,39.60
2023-05-08T10:38:12.467Z,39.53
2023-05-08T10:39:12.468Z,39.49
2023-05-08T10:40:12.581Z,39.59
2023-05-08T10:41:12.610Z,39.49
2023-05-08T10:42:12.581Z,39.73
2023-05-08T10:43:12.626Z,40.10
2023-05-08T10:44:12.647Z,40.09
2023-05-08T10:45:12.697Z,40.12
2023-05-08T10:46:12.612Z,40.08
2023-05-08T10:47:12.713Z,40.17
2023-05-08T10:48:12.685Z,40.25
2023-05-08T10:49:12.618Z,40.23
2023-05-08T10:50:12.753Z,40.37
2023-05-08T10:51:12.608Z,40.39
2023-05-08T10:52:12.692Z,40.56
2023-05-08T10:53:12.650Z,40.63
2023-05-08T10:54:12.663Z,40.59
2023-05-08T10:55:12.686Z,40.44
2023-05-08T10:56:12.716Z,40.38
2023-05-08T10:57:12.769Z,40.38
2023-05-08T10:58:12.734Z,40.29
2023-05-08T10:59:12.734Z,40.34
2023-05-08T11:00:12.905Z,40.44
2023-05-08T11:01:12.830Z,40.31
2023-05-08T11:02:12.995Z,40.29
2023-05-08T11:03:27.319Z,40.36
2023-05-08T11:04:13.942Z,40.44
2023-05-08T11:05:12.853Z,40.31
2023-05-08T11:06:12.854Z,40.28
2023-05-08T11:07:13.192Z,40.28
2023-05-08T11:08:12.838Z,40.20
2023-05-08T11:09:12.830Z,40.16
2023-05-08T11:10:13.133Z,40.13
2023-05-08T11:11:12.820Z,40.22
2023-05-08T11:12:14.689Z,40.20
2023-05-08T11:13:12.818Z,40.14
2023-05-08T11:14:12.857Z,40.06
2023-05-08T11:15:12.814Z,39.95
2023-05-08T11:16:12.826Z,39.87
2023-05-08T11:17:13.269Z,39.96
2023-05-08T11:18:12.851Z,40.00
2023-05-08T11:19:12.811Z,40.01
2023-05-08T11:20:12.986Z,40.00
2023-05-08T11:21:12.813Z,40.09
2023-05-08T11:22:13.224Z,40.07
2023-05-08T11:23:12.820Z,40.04
2023-05-08T11:24:12.833Z,39.86
2023-05-08T11:25:12.941Z,39.80
2023-05-08T11:26:12.914Z,39.71
2023-05-08T11:27:13.193Z,39.85
2023-05-08T11:28:12.906Z,40.13
2023-05-08T11:29:12.880Z,39.97
2023-05-08T11:30:13.169Z,39.96
2023-05-08T11:31:12.976Z,40.32
2023-05-08T11:32:13.235Z,40.13
2023-05-08T11:33:12.985Z,40.05
2023-05-08T11:34:13.004Z,40.24
2023-05-08T11:35:13.053Z,40.16
2023-05-08T11:36:13.138Z,39.94
2023-05-08T11:37:13.268Z,39.81
2023-05-08T11:38:13.227Z,39.77
2023-05-08T11:39:13.292Z,39.69
2023-05-08T11:40:13.499Z,39.59
2023-05-08T11:41:13.336Z,39.49
2023-05-08T11:42:13.436Z,39.40
2023-05-08T11:43:13.445Z,39.38
2023-05-08T11:44:14.737Z,39.32
2023-05-08T11:45:13.475Z,39.21
2023-05-08T11:46:13.468Z,39.14
2023-05-08T11:47:13.781Z,39.07
2023-05-08T11:48:13.575Z,39.04
2023-05-08T11:49:13.527Z,38.96
2023-05-08T11:50:13.868Z,38.92
2023-05-08T11:51:13.696Z,38.86
2023-05-08T11:52:13.685Z,38.84
2023-05-08T11:53:13.720Z,38.77
2023-05-08T11:54:13.763Z,38.74
2023-05-08T11:55:13.752Z,38.68
2023-05-08T11:56:13.794Z,38.61
2023-05-08T11:57:13.842Z,38.57
2023-05-08T11:58:13.849Z,38.55
2023-05-08T11:59:13.856Z,38.50
2023-05-08T12:00:14.151Z,38.48
2023-05-08T12:01:13.954Z,38.46
2023-05-08T12:02:13.974Z,38.43
2023-05-08T12:03:14.131Z,38.41
2023-05-08T12:04:14.060Z,38.37
2023-05-08T12:05:14.125Z,38.37
2023-05-08T12:06:14.047Z,38.35
2023-05-08T12:07:14.129Z,38.31
2023-05-08T12:08:14.118Z,38.28
2023-05-08T12:09:14.147Z,38.26
2023-05-08T12:10:14.744Z,38.23
2023-05-08T12:11:14.181Z,38.22
2023-05-08T12:12:14.228Z,38.18
2023-05-08T12:13:14.310Z,38.19
2023-05-08T12:14:14.298Z,38.18
2023-05-08T12:15:14.402Z,38.16
2023-05-08T12:16:14.378Z,38.11
2023-05-08T12:17:14.570Z,38.08
2023-05-08T12:18:14.550Z,38.09
2023-05-08T12:19:14.623Z,38.09
2023-05-08T12:20:14.938Z,38.09
2023-05-08T12:21:14.678Z,38.06
2023-05-08T12:22:14.763Z,38.04
2023-05-08T12:23:14.779Z,38.01
2023-05-08T12:24:14.908Z,38.01
2023-05-08T12:25:15.135Z,38.02
2023-05-08T12:26:14.957Z,37.99
2023-05-08T12:27:14.998Z,37.99
2023-05-08T12:28:15.047Z,38.00
2023-05-08T12:29:15.136Z,37.95
2023-05-08T12:30:15.436Z,37.96
2023-05-08T12:31:15.277Z,37.94
2023-05-08T12:32:15.309Z,37.94
2023-05-08T12:33:15.306Z,37.93
2023-05-08T12:34:15.272Z,37.94
2023-05-08T12:35:15.277Z,37.91
2023-05-08T12:36:15.369Z,37.90
2023-05-08T12:37:15.417Z,37.90
2023-05-08T12:38:15.472Z,37.88
2023-05-08T12:39:15.500Z,37.87
2023-05-08T12:40:15.659Z,37.83
2023-05-08T12:41:15.553Z,37.84
2023-05-08T12:42:15.545Z,37.79
2023-05-08T12:43:15.560Z,37.81
2023-05-08T12:44:15.650Z,37.80
2023-05-08T12:45:15.657Z,37.78
2023-05-08T12:46:15.768Z,37.79
2023-05-08T12:47:15.768Z,37.74
2023-05-08T12:48:15.819Z,37.76
2023-05-08T12:49:15.857Z,37.74
2023-05-08T12:50:16.172Z,37.73
2023-05-08T12:51:15.951Z,37.74
2023-05-08T12:52:16.020Z,37.71
2023-05-08T12:53:16.088Z,37.72
2023-05-08T12:54:16.033Z,37.72